KBFD

Bradford Regional Airport

Bradford, Pennsylvania, USA
METAR KBFD 161400Z AUTO 24008G19KT 1 1/2SM -SN BR OVC009 M04/M06 A2986 RMK AO2 P0000 T10391056
Observed Flight Rules
Dec-16 @ 14:00 UTC (52 minutes ago) Instrument Flight Rules
Wind Visibility Clouds Conditions
240° at 8 knots
 Gusting to 19 knots
1 1/2 miles
  • Overcast at 900' AGL
  • Light Snow
  • Mist
Temperatures Readings Precipitation
Current -4°C / 25°F
Dewpoint -6°C / 21°F
Humidity 86%
Altimeter 29.86" Hg
Pressure 1011 hPa
Elevation 647
Current Rain 0.005
METAR KBFD 161400Z AUTO 24008G19KT 1 1/2SM -SN BR OVC009 M04/M06 A2986 RMK AO2 P0000 T10391056
Observed Flight Rules
Dec-16 @ 14:00 UTC
(52 minutes ago)
IFR
Wind Visibility
240° at 8 knots
 Gusting to 19 knots
1 1/2 miles
Clouds
  • Overcast at 900' AGL
Conditions
  • Light Snow
  • Mist
Temperature Dewpoint
-4°C / 25°F -6°C / 21°F
Humidity Altimeter Pressure
86% 29.86" Hg 1011 hPa
Current Rain
0.005